Time;durP1;ratioP1;P1;durP2;ratioP2;P2;SDS_P1;SDS_P2;PMS_P1;PMS_P2;Temp;Humidity;BMP_temperature;BMP_pressure;BME280_temperature;BME280_humidity;BME280_pressure;Samples;Min_cycle;Max_cycle;Signal;HPM_P1;HPM_P2
2021/09/02 03:19:24;;;;;;;;;;;;;;;6.52;92.26;100448.16;4955271;28;20356;-87
2021/09/02 03:21:49;;;;;;;;;;;;;;;6.50;92.69;100450.81;4963772;28;19966;-87
2021/09/02 03:24:14;;;;;;;;;;;;;;;6.52;92.91;100446.38;4962091;28;20274;-89
2021/09/02 03:26:40;;;;;;;;;;;;;;;6.52;92.99;100443.75;4963265;28;19919;-86
2021/09/02 03:29:05;;;;;;;;;;;;;;;6.57;93.73;100438.41;4962667;28;19923;-87
2021/09/02 03:31:30;;;;;;;;;;;;;;;6.55;94.16;100448.13;4962226;28;19918;-89
2021/09/02 03:33:55;;;;;;;;;;;;;;;6.54;94.39;100451.63;4963163;28;19922;-88
2021/09/02 03:36:21;;;;;;;;;;;;;;;6.56;94.60;100449.88;4961910;28;20288;-87
2021/09/02 03:38:46;;;;;;;;;;;;;;;6.62;95.96;100451.50;4962077;28;19922;-90
2021/09/02 03:41:11;;;;;;;;;;;;;;;6.69;97.38;100447.91;4966521;28;19922;-87
2021/09/02 03:43:37;;;;;;;;;;;;;;;6.72;99.01;100446.06;4967272;28;19957;-87
2021/09/02 03:46:02;;;;;;;;;;;;;;;6.77;100.00;100442.50;4966156;28;20281;-88
2021/09/02 03:48:27;;;;;;;;;;;;;;;6.84;100.00;100446.75;4964476;28;19926;-88
2021/09/02 03:50:52;;;;;;;;;;;;;;;6.94;100.00;100439.56;4966223;28;19919;-88
2021/09/02 03:53:18;;;;;;;;;;;;;;;6.90;100.00;100446.66;4965835;28;19922;-87
2021/09/02 03:55:43;;;;;;;;;;;;;;;6.90;100.00;100438.75;4965807;28;19940;-89
2021/09/02 03:58:08;;;;;;;;;;;;;;;6.84;100.00;100438.88;4965953;28;20011;-91
2021/09/02 04:00:34;;;;;;;;;;;;;;;6.80;100.00;100434.56;4965760;28;20522;-92
2021/09/02 04:02:59;;;;;;;;;;;;;;;7.05;100.00;100437.59;4964163;28;19922;-87
2021/09/02 04:05:25;;;;;;;;;;;;;;;7.41;100.00;100433.41;4965499;28;19958;-87
2021/09/02 04:07:50;;;;;;;;;;;;;;;7.42;100.00;100436.94;4966724;28;20177;-89
2021/09/02 04:10:15;;;;;;;;;;;;;;;7.32;100.00;100435.38;4965726;28;19950;-85
2021/09/02 04:12:40;;;;;;;;;;;;;;;7.17;100.00;100436.53;4966971;28;19918;-86
2021/09/02 04:15:06;;;;;;;;;;;;;;;7.13;100.00;100440.97;4965381;28;19919;-86
2021/09/02 04:17:31;;;;;;;;;;;;;;;7.08;100.00;100441.09;4964006;28;20288;-92
2021/09/02 04:19:56;;;;;;;;;;;;;;;7.00;100.00;100439.47;4965039;28;20496;-87
2021/09/02 04:22:22;;;;;;;;;;;;;;;6.94;100.00;100440.47;4965166;28;19923;-92
2021/09/02 04:24:47;;;;;;;;;;;;;;;6.89;100.00;100434.38;4965603;28;20388;-86
2021/09/02 04:27:14;;;;;;;;;;;;;;;6.89;100.00;100435.28;4964605;28;20016;-86
2021/09/02 04:29:40;;;;;;;;;;;;;;;6.81;100.00;100442.44;4965777;28;19918;-86
2021/09/02 04:32:05;;;;;;;;;;;;;;;6.87;100.00;100438.81;4971933;28;19926;-93
2021/09/02 04:34:30;;;;;;;;;;;;;;;6.88;100.00;100435.28;4964961;28;19922;-87
2021/09/02 04:36:56;;;;;;;;;;;;;;;6.87;100.00;100449.34;4962192;28;20278;-86
2021/09/02 04:39:21;;;;;;;;;;;;;;;6.80;100.00;100445.09;4965406;28;19919;-87
2021/09/02 04:41:46;;;;;;;;;;;;;;;6.79;100.00;100449.47;4964638;28;20012;-86
2021/09/02 07:50:16;;;;;;;;;;;;;;;7.20;98.16;100450.53;5824709;23;19989;-88
2021/09/02 07:52:42;;;;;;;;;;;;;;;7.27;97.94;100448.63;4939842;29;19929;-86
2021/09/02 07:55:08;;;;;;;;;;;;;;;7.26;98.04;100447.78;4942215;29;19927;-87
2021/09/02 07:57:33;;;;;;;;;;;;;;;7.24;98.35;100440.78;4958633;28;19918;-91
2021/09/02 07:59:59;;;;;;;;;;;;;;;7.23;98.50;100442.56;4942966;29;19922;-89
2021/09/02 08:02:24;;;;;;;;;;;;;;;7.30;98.39;100451.22;4943263;29;20352;-87
2021/09/02 08:04:49;;;;;;;;;;;;;;;7.32;98.04;100451.19;4941344;29;19922;-87
2021/09/02 08:07:14;;;;;;;;;;;;;;;7.46;99.07;100451.78;4943374;29;19918;-92
2021/09/02 08:09:40;;;;;;;;;;;;;;;7.37;97.95;100449.31;4943502;29;19923;-87
2021/09/02 08:12:05;;;;;;;;;;;;;;;7.37;97.91;100444.06;4944477;28;19918;-87
2021/09/02 08:14:30;;;;;;;;;;;;;;;7.42;98.46;100451.00;4943847;28;20286;-87
2021/09/02 08:16:56;;;;;;;;;;;;;;;7.49;98.93;100442.97;4941922;29;19976;-91
2021/09/02 08:19:21;;;;;;;;;;;;;;;7.40;98.02;100447.53;4942290;29;20418;-87
2021/09/02 08:21:47;;;;;;;;;;;;;;;7.53;99.16;100450.78;4944283;29;19922;-87
2021/09/02 08:24:12;;;;;;;;;;;;;;;7.46;98.41;100449.16;4942409;29;19973;-91
2021/09/02 08:26:37;;;;;;;;;;;;;;;7.46;98.52;100459.69;4945931;29;19923;-88
2021/09/02 08:29:03;;;;;;;;;;;;;;;7.46;98.74;100457.06;4945965;29;19919;-87
2021/09/02 08:31:28;;;;;;;;;;;;;;;7.60;99.23;100457.66;4946604;29;19970;-87
2021/09/02 08:33:54;;;;;;;;;;;;;;;7.56;97.85;100449.84;4945725;29;20029;-87
2021/09/02 08:36:19;;;;;;;;;;;;;;;7.55;98.93;100443.69;4944787;29;20373;-87
2021/09/02 08:38:47;;;;;;;;;;;;;;;7.70;99.22;100457.47;4945136;29;19918;-87
2021/09/02 08:41:14;;;;;;;;;;;;;;;7.59;98.52;100455.06;4945681;29;20274;-87
2021/09/02 08:43:39;;;;;;;;;;;;;;;7.67;98.70;100452.25;4946098;29;20314;-87
2021/09/02 08:46:04;;;;;;;;;;;;;;;7.69;99.20;100446.06;4945843;29;19918;-88
2021/09/02 08:48:30;;;;;;;;;;;;;;;7.70;99.01;100437.25;4945630;29;19922;-87
2021/09/02 08:50:55;;;;;;;;;;;;;;;7.69;98.83;100437.28;4956962;28;19926;-87
2021/09/02 08:53:21;;;;;;;;;;;;;;;7.68;98.56;100438.19;4965028;28;19924;-87
2021/09/02 08:55:46;;;;;;;;;;;;;;;7.68;98.36;100439.03;4964534;28;20438;-87
2021/09/02 08:58:12;;;;;;;;;;;;;;;7.79;99.20;100442.31;4965690;28;19978;-87
2021/09/02 09:00:37;;;;;;;;;;;;;;;7.73;98.14;100436.31;4964475;28;20030;-89
2021/09/02 09:03:04;;;;;;;;;;;;;;;7.75;98.71;100430.09;4964627;28;19965;-89
2021/09/02 09:05:33;;;;;;;;;;;;;;;7.76;98.29;100423.91;4978286;28;20381;-89
2021/09/02 09:07:59;;;;;;;;;;;;;;;7.76;98.22;100428.34;4964168;28;19945;-88
2021/09/02 09:10:25;;;;;;;;;;;;;;;7.68;98.36;100423.22;4964392;28;20366;-87
2021/09/02 09:12:58;;;;;;;;;;;;;;;7.75;98.33;100432.72;4963879;28;19922;-88
2021/09/02 09:15:31;;;;;;;;;;;;;;;7.73;98.12;100425.75;4964474;28;20018;-87
2021/09/02 09:18:13;;;;;;;;;;;;;;;7.72;98.27;100426.66;4964381;28;19926;-87
2021/09/02 09:20:38;;;;;;;;;;;;;;;7.81;97.98;100429.97;4979047;28;20365;-87
2021/09/02 09:23:04;;;;;;;;;;;;;;;7.78;98.26;100429.16;4964557;28;19929;-87
2021/09/02 09:25:29;;;;;;;;;;;;;;;7.82;99.26;100420.31;4964526;28;20387;-88
2021/09/02 09:27:58;;;;;;;;;;;;;;;7.81;98.12;100414.13;4965605;28;19923;-88
2021/09/02 09:30:30;;;;;;;;;;;;;;;7.81;98.40;100414.13;4963290;28;19923;-88
2021/09/02 09:33:01;;;;;;;;;;;;;;;7.84;98.28;100409.72;4971762;28;19926;-88
2021/09/02 09:35:34;;;;;;;;;;;;;;;7.88;97.91;100406.09;4963466;28;19918;-89
2021/09/02 09:38:04;;;;;;;;;;;;;;;7.92;97.93;100400.72;4963830;28;19988;-88
2021/09/02 09:40:30;;;;;;;;;;;;;;;7.95;98.29;100400.66;4964282;28;20024;-88
2021/09/02 09:42:56;;;;;;;;;;;;;;;7.93;98.24;100402.47;4963836;28;20026;-88
2021/09/02 09:45:33;;;;;;;;;;;;;;;8.10;99.23;100407.34;4962637;28;19919;-88
2021/09/02 09:47:59;;;;;;;;;;;;;;;7.96;98.42;100396.22;4964974;28;20639;-87
2021/09/02 09:50:24;;;;;;;;;;;;;;;8.02;99.20;100388.19;4963567;28;19926;-88
2021/09/02 09:52:49;;;;;;;;;;;;;;;7.93;97.82;100386.63;4966683;28;19924;-88
2021/09/02 09:55:16;;;;;;;;;;;;;;;7.98;97.90;100386.53;4966947;28;19922;-90
2021/09/02 09:57:42;;;;;;;;;;;;;;;7.96;98.12;100386.56;4984288;28;19969;-87
2021/09/02 10:00:09;;;;;;;;;;;;;;;7.94;98.09;100385.72;4965917;28;19980;-88
2021/09/02 10:02:39;;;;;;;;;;;;;;;7.94;98.73;100382.22;4981988;28;19973;-88
2021/09/02 10:05:05;;;;;;;;;;;;;;;8.05;99.39;100379.34;4965769;28;19918;-88
2021/09/02 10:07:32;;;;;;;;;;;;;;;8.05;98.34;100380.19;4983875;28;19918;-88
2021/09/02 10:10:01;;;;;;;;;;;;;;;7.98;97.73;100376.81;4966201;28;20381;-89
2021/09/02 10:12:26;;;;;;;;;;;;;;;8.00;97.90;100371.53;4983184;28;20004;-89
2021/09/02 10:14:55;;;;;;;;;;;;;;;8.03;98.54;100373.22;4966923;28;19918;-88
2021/09/02 10:17:20;;;;;;;;;;;;;;;8.03;98.19;100368.81;4967883;28;19941;-89
2021/09/02 10:19:47;;;;;;;;;;;;;;;8.18;99.22;100365.81;4965018;28;20361;-89
2021/09/02 10:22:16;;;;;;;;;;;;;;;8.14;98.10;100360.66;4983195;28;19992;-88
2021/09/02 10:24:42;;;;;;;;;;;;;;;8.14;98.00;100364.16;4965984;28;20366;-87
2021/09/02 10:27:22;;;;;;;;;;;;;;;8.21;99.15;100369.28;4965903;28;19922;-88
2021/09/02 10:29:48;;;;;;;;;;;;;;;8.26;98.77;100370.88;4981444;28;20001;-89
2021/09/02 10:32:23;;;;;;;;;;;;;;;8.30;98.78;100363.78;4966347;28;19917;-89
2021/09/02 10:34:52;;;;;;;;;;;;;;;8.27;98.81;100366.50;4964383;28;19941;-90
2021/09/02 10:37:36;;;;;;;;;;;;;;;8.46;99.60;100374.88;4981251;28;19936;-89
2021/09/02 10:40:05;;;;;;;;;;;;;;;8.28;99.24;100365.56;4966976;28;20408;-89
2021/09/02 10:42:43;;;;;;;;;;;;;;;8.36;99.46;100366.28;4965830;28;19961;-89
2021/09/02 10:47:52;;;;;;;;;;;;;;;8.33;99.48;100363.72;4982883;28;20289;-89
2021/09/02 10:50:22;;;;;;;;;;;;;;;8.33;99.23;100358.44;4963947;28;19921;-89
2021/09/02 10:52:47;;;;;;;;;;;;;;;8.41;99.58;100372.31;4982456;28;19918;-88
2021/09/02 10:55:29;;;;;;;;;;;;;;;8.32;98.50;100351.41;4965947;28;19918;-89
2021/09/02 10:57:54;;;;;;;;;;;;;;;8.24;98.92;100350.72;4983943;28;20393;-89
2021/09/02 11:00:33;;;;;;;;;;;;;;;8.30;98.46;100355.88;4983405;28;19918;-88
2021/09/02 11:03:17;;;;;;;;;;;;;;;8.34;99.33;100357.50;4965563;28;20065;-89
2021/09/02 11:05:43;;;;;;;;;;;;;;;8.34;98.79;100342.56;4964234;28;19922;-88
2021/09/02 11:08:09;;;;;;;;;;;;;;;8.27;98.84;100342.75;4965936;28;20058;-88
2021/09/02 11:10:34;;;;;;;;;;;;;;;8.26;99.00;100336.56;4965309;28;19941;-88
2021/09/02 11:13:04;;;;;;;;;;;;;;;8.32;99.01;100332.94;4965076;28;20290;-88
2021/09/02 11:15:30;;;;;;;;;;;;;;;8.51;99.43;100338.66;4965280;28;19929;-88
2021/09/02 11:17:57;;;;;;;;;;;;;;;8.46;99.81;100330.84;4981559;28;19918;-87
2021/09/02 11:20:24;;;;;;;;;;;;;;;8.44;99.63;100335.31;4964262;28;20012;-88
2021/09/02 11:22:50;;;;;;;;;;;;;;;8.39;100.00;100328.34;4981179;28;19921;-89
2021/09/02 11:25:15;;;;;;;;;;;;;;;8.37;99.10;100326.59;4965452;28;19968;-90
2021/09/02 11:27:41;;;;;;;;;;;;;;;8.43;99.83;100327.38;4965629;28;19929;-90
2021/09/02 11:30:20;;;;;;;;;;;;;;;8.45;99.80;100331.72;4983010;28;20357;-88
2021/09/02 11:32:53;;;;;;;;;;;;;;;8.33;99.00;100329.38;4965365;28;19918;-87
2021/09/02 11:35:19;;;;;;;;;;;;;;;8.42;99.28;100339.69;4964221;28;19960;-88
2021/09/02 11:37:45;;;;;;;;;;;;;;;8.51;100.00;100328.94;4964511;28;19989;-89
2021/09/02 11:40:30;;;;;;;;;;;;;;;8.46;99.64;100330.84;4980249;28;19918;-88
2021/09/02 11:42:56;;;;;;;;;;;;;;;8.63;100.00;100321.59;4982202;28;19922;-89
2021/09/02 11:45:22;;;;;;;;;;;;;;;8.54;99.88;100328.00;4982521;28;19960;-88
2021/09/02 11:47:50;;;;;;;;;;;;;;;8.50;99.17;100335.16;4981413;28;20302;-88
2021/09/02 11:50:16;;;;;;;;;;;;;;;8.46;99.47;100320.28;4963713;28;20426;-89
2021/09/02 11:52:46;;;;;;;;;;;;;;;8.39;99.20;100320.44;4980394;28;19918;-89
2021/09/02 11:55:20;;;;;;;;;;;;;;;8.49;100.00;100322.84;4980125;28;19918;-89
2021/09/02 11:57:49;;;;;;;;;;;;;;;8.49;98.97;100320.19;4980971;28;19929;-89
2021/09/02 12:00:15;;;;;;;;;;;;;;;8.47;98.91;100314.09;4983267;28;19976;-89
2021/09/02 12:02:45;;;;;;;;;;;;;;;8.51;99.89;100309.59;4968987;28;20288;-87
2021/09/02 12:05:10;;;;;;;;;;;;;;;8.47;99.46;100313.22;4984649;28;19918;-88
2021/09/02 12:07:36;;;;;;;;;;;;;;;8.63;100.00;100311.03;4968610;28;19918;-88
2021/09/02 12:10:02;;;;;;;;;;;;;;;8.58;99.55;100319.06;4969098;28;19924;-87
2021/09/02 12:12:32;;;;;;;;;;;;;;;8.54;99.56;100320.09;4968663;28;19922;-88
2021/09/02 12:14:57;;;;;;;;;;;;;;;8.68;100.00;100314.41;4986003;28;19928;-89
2021/09/02 12:17:31;;;;;;;;;;;;;;;8.65;99.92;100309.25;4983662;28;19918;-88
2021/09/02 12:19:58;;;;;;;;;;;;;;;8.61;99.27;100307.56;4983205;28;20388;-88
2021/09/02 12:22:37;;;;;;;;;;;;;;;8.68;99.81;100306.47;4983623;28;19918;-88
2021/09/02 12:25:19;;;;;;;;;;;;;;;8.69;99.88;100297.66;4986239;28;20408;-88
2021/09/02 12:27:49;;;;;;;;;;;;;;;8.79;100.00;100299.16;4984833;28;19965;-88
2021/09/02 12:30:15;;;;;;;;;;;;;;;8.80;100.00;100306.16;4983478;28;20297;-88
2021/09/02 12:32:41;;;;;;;;;;;;;;;8.77;100.00;100308.03;4984359;28;19985;-88
2021/09/02 12:35:10;;;;;;;;;;;;;;;8.83;100.00;100306.09;4966766;28;20393;-87
2021/09/02 12:37:36;;;;;;;;;;;;;;;8.81;99.84;100312.34;4968594;28;20409;-88
2021/09/02 12:40:02;;;;;;;;;;;;;;;8.77;99.19;100311.53;4968197;28;19953;-88
2021/09/02 12:42:28;;;;;;;;;;;;;;;8.74;99.96;100316.91;4968785;28;19922;-87
2021/09/02 12:45:03;;;;;;;;;;;;;;;8.82;99.64;100327.25;4968371;28;19935;-88
2021/09/02 12:47:28;;;;;;;;;;;;;;;8.70;97.98;100316.13;4967551;28;19918;-88
2021/09/02 12:49:55;;;;;;;;;;;;;;;8.77;99.13;100308.03;4966886;28;19924;-88
2021/09/02 12:52:29;;;;;;;;;;;;;;;8.90;99.93;100312.06;4985385;28;20034;-88
2021/09/02 12:55:13;;;;;;;;;;;;;;;8.96;100.00;100303.97;4984057;28;20016;-88
2021/09/02 12:57:41;;;;;;;;;;;;;;;8.85;99.13;100304.25;4985563;28;20385;-88
2021/09/02 13:00:08;;;;;;;;;;;;;;;8.78;98.80;100297.41;4966448;28;19918;-88
2021/09/02 13:02:34;;;;;;;;;;;;;;;8.80;99.15;100302.66;4967842;28;19918;-88
2021/09/02 13:04:59;;;;;;;;;;;;;;;8.74;98.52;100301.03;4966222;28;19933;-88
2021/09/02 13:07:24;;;;;;;;;;;;;;;8.91;98.94;100292.66;4985068;28;19968;-88
2021/09/02 13:09:50;;;;;;;;;;;;;;;8.86;99.86;100282.22;4966977;28;20317;-89
2021/09/02 13:12:15;;;;;;;;;;;;;;;8.95;99.06;100288.16;4967390;28;20010;-88
2021/09/02 13:14:40;;;;;;;;;;;;;;;8.86;98.12;100284.84;4967155;28;19918;-88
2021/09/02 13:17:06;;;;;;;;;;;;;;;8.94;98.74;100275.88;4985140;28;19917;-87
2021/09/02 13:19:31;;;;;;;;;;;;;;;8.87;98.10;100278.69;4966232;28;20054;-89
2021/09/02 13:21:56;;;;;;;;;;;;;;;8.88;98.72;100276.88;4967527;28;19922;-88
2021/09/02 13:24:22;;;;;;;;;;;;;;;8.98;99.37;100273.06;4967539;28;19968;-88
2021/09/02 13:26:47;;;;;;;;;;;;;;;8.84;97.81;100272.59;4967080;28;19918;-88
2021/09/02 13:29:12;;;;;;;;;;;;;;;8.81;97.28;100264.78;4984655;28;20373;-88
2021/09/02 13:31:37;;;;;;;;;;;;;;;8.78;97.52;100267.50;4983502;28;19926;-88
2021/09/02 13:34:03;;;;;;;;;;;;;;;8.78;97.55;100265.72;4966917;28;20349;-88
2021/09/02 13:36:28;;;;;;;;;;;;;;;8.91;98.65;100271.53;4965690;28;19918;-88
2021/09/02 13:38:53;;;;;;;;;;;;;;;8.96;99.10;100268.75;4967766;28;20461;-88
2021/09/02 13:41:19;;;;;;;;;;;;;;;8.86;98.14;100271.66;4966617;28;19926;-88
2021/09/02 13:43:44;;;;;;;;;;;;;;;9.05;99.60;100271.13;4966651;28;20285;-88
2021/09/02 13:46:10;;;;;;;;;;;;;;;9.06;99.63;100263.16;4967252;28;19985;-88
2021/09/02 13:48:36;;;;;;;;;;;;;;;9.04;98.46;100258.81;4966731;28;20020;-89
2021/09/02 13:51:02;;;;;;;;;;;;;;;9.08;98.80;100258.69;4965491;28;19973;-88
2021/09/02 13:53:27;;;;;;;;;;;;;;;8.97;98.17;100259.91;4966957;28;19960;-88
2021/09/02 13:55:53;;;;;;;;;;;;;;;9.05;99.54;100255.28;4966741;28;20001;-88
2021/09/02 13:58:18;;;;;;;;;;;;;;;9.12;99.59;100248.03;4967256;28;20388;-89
2021/09/02 14:00:44;;;;;;;;;;;;;;;9.09;98.61;100254.25;4984492;28;19918;-88
2021/09/02 14:03:09;;;;;;;;;;;;;;;9.03;98.28;100238.56;4966145;28;19964;-88
2021/09/02 14:05:34;;;;;;;;;;;;;;;9.12;98.47;100238.31;4965626;28;19960;-88
2021/09/02 14:08:00;;;;;;;;;;;;;;;9.09;98.44;100233.09;4966446;28;19918;-88
2021/09/02 14:10:25;;;;;;;;;;;;;;;9.04;99.16;100229.75;4966096;28;19926;-88
2021/09/02 14:12:50;;;;;;;;;;;;;;;9.03;97.28;100230.63;4965569;28;19922;-88
2021/09/02 14:15:16;;;;;;;;;;;;;;;9.05;97.68;100226.19;4964846;28;19933;-88
2021/09/02 14:17:41;;;;;;;;;;;;;;;9.08;97.70;100221.69;4964989;28;20358;-89
2021/09/02 14:20:07;;;;;;;;;;;;;;;9.03;97.34;100222.72;4983720;28;19922;-88
2021/09/02 14:22:33;;;;;;;;;;;;;;;9.02;97.28;100221.00;4965635;28;20381;-89
2021/09/02 14:24:58;;;;;;;;;;;;;;;9.00;96.27;100212.22;4967203;28;19918;-88
2021/09/02 14:27:23;;;;;;;;;;;;;;;9.02;97.24;100221.00;4965133;28;19925;-88
2021/09/02 14:29:48;;;;;;;;;;;;;;;8.95;96.51;100219.44;4982306;28;19973;-89
2021/09/02 14:32:14;;;;;;;;;;;;;;;8.89;96.76;100215.22;4966490;28;19926;-89
2021/09/02 14:34:39;;;;;;;;;;;;;;;8.97;96.73;100215.00;4980553;28;20312;-90
2021/09/02 14:37:07;;;;;;;;;;;;;;;8.97;97.13;100218.50;4967226;28;19922;-89
2021/09/02 14:39:32;;;;;;;;;;;;;;;8.95;96.89;100216.78;4961159;28;20007;-88
2021/09/02 14:41:57;;;;;;;;;;;;;;;8.98;97.41;100214.06;4964192;28;19976;-88
2021/09/02 14:44:22;;;;;;;;;;;;;;;9.03;98.21;100214.78;4964525;28;19925;-90
2021/09/02 14:46:47;;;;;;;;;;;;;;;8.95;96.77;100203.56;4965208;28;19930;-89
2021/09/02 14:49:13;;;;;;;;;;;;;;;8.97;96.90;100207.91;4965125;28;20045;-89
2021/09/02 14:51:38;;;;;;;;;;;;;;;8.99;96.42;100211.38;4965193;28;19926;-89
2021/09/02 14:54:04;;;;;;;;;;;;;;;8.96;96.38;100215.88;4964452;28;19928;-87
2021/09/02 14:56:29;;;;;;;;;;;;;;;8.95;96.82;100208.84;4966652;28;20365;-89
2021/09/02 14:58:54;;;;;;;;;;;;;;;8.97;96.59;100205.28;4964631;28;19918;-87
2021/09/02 15:01:19;;;;;;;;;;;;;;;9.00;96.22;100196.38;4965744;28;19921;-88
2021/09/02 15:03:45;;;;;;;;;;;;;;;8.93;95.99;100205.41;4964586;28;20436;-89
2021/09/02 15:06:10;;;;;;;;;;;;;;;8.96;97.49;100197.38;4963945;28;19925;-87
2021/09/02 15:08:35;;;;;;;;;;;;;;;9.11;97.85;100191.66;4965550;28;19918;-89
2021/09/02 15:11:01;;;;;;;;;;;;;;;9.06;97.53;100199.72;4965500;28;19925;-89
2021/09/02 15:13:26;;;;;;;;;;;;;;;8.99;96.84;100195.50;4965266;28;19937;-90
2021/09/02 15:15:51;;;;;;;;;;;;;;;9.09;97.13;100198.75;4965447;28;19953;-88
2021/09/02 15:18:16;;;;;;;;;;;;;;;9.11;96.67;100198.69;4983197;28;20005;-87
2021/09/02 15:20:42;;;;;;;;;;;;;;;8.99;96.57;100195.50;4963355;28;20005;-86
2021/09/02 15:23:07;;;;;;;;;;;;;;;9.00;96.59;100196.38;4964076;28;19922;-87
2021/09/02 15:25:32;;;;;;;;;;;;;;;9.01;96.19;100192.81;4964827;28;19918;-86
2021/09/02 15:27:57;;;;;;;;;;;;;;;9.08;96.56;100187.31;4981278;28;19968;-86
2021/09/02 15:30:22;;;;;;;;;;;;;;;9.01;96.69;100198.09;4965286;28;19921;-87
2021/09/02 15:32:48;;;;;;;;;;;;;;;9.07;96.76;100188.22;4978124;28;19926;-87
2021/09/02 15:35:13;;;;;;;;;;;;;;;9.08;97.14;100187.31;4966747;28;19925;-87
2021/09/02 15:37:38;;;;;;;;;;;;;;;9.02;97.06;100178.72;4969558;28;19932;-87
2021/09/02 15:40:04;;;;;;;;;;;;;;;9.09;96.30;100180.22;4969050;28;19973;-87
2021/09/02 15:42:30;;;;;;;;;;;;;;;9.16;97.03;100175.63;4969762;28;20050;-87
2021/09/02 15:44:55;;;;;;;;;;;;;;;9.12;96.37;100174.84;4985241;28;19946;-87
2021/09/02 15:47:21;;;;;;;;;;;;;;;9.06;96.54;100178.56;4969075;28;19918;-87
2021/09/02 15:49:46;;;;;;;;;;;;;;;9.07;97.11;100182.06;4967703;28;19964;-87
2021/09/02 15:52:11;;;;;;;;;;;;;;;9.16;97.86;100167.69;4967021;28;19930;-87
2021/09/02 15:54:36;;;;;;;;;;;;;;;9.14;96.87;100164.25;4968515;28;20366;-87
2021/09/02 15:57:02;;;;;;;;;;;;;;;9.23;99.10;100162.16;4967976;28;19914;-87
2021/09/02 15:59:27;;;;;;;;;;;;;;;9.30;98.72;100167.25;4968937;28;20436;-88
2021/09/02 16:01:52;;;;;;;;;;;;;;;9.23;98.80;100163.94;4968909;28;19918;-87
2021/09/02 16:04:17;;;;;;;;;;;;;;;9.22;98.40;100164.84;4968140;28;20403;-88
2021/09/02 16:06:43;;;;;;;;;;;;;;;9.19;98.22;100159.66;4968403;28;20052;-87
2021/09/02 16:09:08;;;;;;;;;;;;;;;9.08;96.96;100155.59;4968595;28;19918;-88
2021/09/02 16:11:34;;;;;;;;;;;;;;;9.13;96.42;100150.16;4985886;28;20285;-87
2021/09/02 16:13:59;;;;;;;;;;;;;;;9.29;97.80;100147.03;4968488;28;19926;-85
2021/09/02 16:16:24;;;;;;;;;;;;;;;9.20;96.77;100151.69;4966851;28;19922;-87
2021/09/02 16:18:49;;;;;;;;;;;;;;;9.11;96.45;100159.94;4967618;28;19918;-87
2021/09/02 16:21:17;;;;;;;;;;;;;;;9.14;96.55;100151.88;4966976;28;20270;-86
2021/09/02 16:23:42;;;;;;;;;;;;;;;9.15;95.93;100153.63;4967426;28;20021;-88
2021/09/02 16:26:07;;;;;;;;;;;;;;;9.17;97.09;100150.94;4976160;28;20017;-87
2021/09/02 16:28:33;;;;;;;;;;;;;;;9.01;96.01;100139.97;4968902;28;19929;-87
2021/09/02 16:30:58;;;;;;;;;;;;;;;9.11;96.56;100135.25;4961917;28;20281;-88
2021/09/02 16:33:23;;;;;;;;;;;;;;;8.98;95.03;100140.06;4967774;28;19926;-87
2021/09/02 16:35:50;;;;;;;;;;;;;;;8.93;95.37;100139.34;4966718;28;19928;-87
2021/09/02 16:38:16;;;;;;;;;;;;;;;8.94;95.39;100135.78;4967839;28;19961;-86
2021/09/02 16:40:42;;;;;;;;;;;;;;;8.95;95.09;100137.50;4968236;28;20377;-87
2021/09/02 16:43:07;;;;;;;;;;;;;;;8.89;94.77;100136.78;4967807;28;20362;-88
2021/09/02 16:45:33;;;;;;;;;;;;;;;8.98;94.60;100124.19;4959231;28;20021;-87
2021/09/02 16:47:59;;;;;;;;;;;;;;;9.06;96.50;100138.03;4967392;28;19976;-87
2021/09/02 16:50:24;;;;;;;;;;;;;;;9.05;95.12;100125.75;4966268;28;19933;-86
2021/09/02 16:52:50;;;;;;;;;;;;;;;9.12;95.82;100129.06;4967808;28;19922;-87
2021/09/02 16:55:15;;;;;;;;;;;;;;;9.00;95.08;100130.28;4965373;28;19922;-87
2021/09/02 16:57:47;;;;;;;;;;;;;;;8.97;95.18;100127.78;4968211;28;19949;-87
2021/09/02 17:00:13;;;;;;;;;;;;;;;8.95;95.02;100121.66;4966646;28;19922;-88
2021/09/02 17:02:38;;;;;;;;;;;;;;;8.92;95.36;100130.56;4986038;28;19926;-87
2021/09/02 17:05:04;;;;;;;;;;;;;;;8.96;94.47;100123.38;4981945;28;20380;-88
2021/09/02 17:07:29;;;;;;;;;;;;;;;8.93;94.46;100124.34;4967523;28;20579;-87
2021/09/02 17:09:55;;;;;;;;;;;;;;;8.91;94.26;100118.25;4967898;28;19918;-88
2021/09/02 17:12:20;;;;;;;;;;;;;;;9.01;94.22;100121.47;4967562;28;19970;-88
2021/09/02 17:14:46;;;;;;;;;;;;;;;8.93;94.19;100115.53;4967464;28;19929;-88
2021/09/02 17:17:11;;;;;;;;;;;;;;;8.92;94.12;100112.06;4966646;28;19972;-88
2021/09/02 17:19:37;;;;;;;;;;;;;;;8.93;95.11;100104.97;4965898;28;19933;-87
2021/09/02 17:22:03;;;;;;;;;;;;;;;8.98;94.37;100108.34;4976595;28;19922;-87
2021/09/02 17:24:29;;;;;;;;;;;;;;;8.90;94.54;100106.81;4967523;28;19926;-88
2021/09/02 17:26:54;;;;;;;;;;;;;;;8.87;94.60;100101.63;4967012;28;20305;-88
2021/09/02 17:29:21;;;;;;;;;;;;;;;8.84;94.83;100100.81;4983914;28;20148;-87
2021/09/02 17:31:47;;;;;;;;;;;;;;;8.84;94.72;100106.09;4966033;28;19933;-87
2021/09/02 17:34:12;;;;;;;;;;;;;;;8.87;94.78;100106.91;4965323;28;19922;-87
2021/09/02 17:36:38;;;;;;;;;;;;;;;8.88;95.30;100102.47;4966607;28;20406;-87
2021/09/02 17:39:03;;;;;;;;;;;;;;;8.85;94.45;100107.84;4965632;28;20361;-87
2021/09/02 17:41:28;;;;;;;;;;;;;;;8.86;94.66;100109.59;4983342;28;20882;-87
2021/09/02 17:43:54;;;;;;;;;;;;;;;8.93;94.36;100112.91;4966104;28;20329;-88
2021/09/02 17:46:19;;;;;;;;;;;;;;;8.87;94.67;100114.84;4968742;28;19925;-88
2021/09/02 17:48:44;;;;;;;;;;;;;;;8.88;94.77;100103.31;4967193;28;19945;-90
2021/09/02 17:51:10;;;;;;;;;;;;;;;8.85;94.74;100111.34;4965902;28;19930;-87
2021/09/02 17:53:38;;;;;;;;;;;;;;;8.83;94.76;100101.75;4974391;28;20358;-89
2021/09/02 17:56:03;;;;;;;;;;;;;;;8.85;94.54;100103.41;4966722;28;19929;-87
2021/09/02 17:58:29;;;;;;;;;;;;;;;8.87;94.45;100095.44;4965123;28;19926;-88
2021/09/02 18:00:54;;;;;;;;;;;;;;;8.81;94.60;100103.59;4966070;28;19922;-88
2021/09/02 18:03:19;;;;;;;;;;;;;;;8.88;94.65;100097.19;4979300;28;19933;-88
2021/09/02 18:05:44;;;;;;;;;;;;;;;8.89;94.88;100097.16;4964211;28;19968;-87
2021/09/02 18:08:10;;;;;;;;;;;;;;;8.87;94.26;100095.44;4982399;28;19949;-88
2021/09/02 18:10:36;;;;;;;;;;;;;;;8.83;94.58;100094.69;4964462;28;20009;-87
2021/09/02 18:13:01;;;;;;;;;;;;;;;8.83;95.00;100096.47;4977579;28;20480;-88
2021/09/02 18:15:27;;;;;;;;;;;;;;;8.86;94.96;100094.59;4966479;28;19922;-88
2021/09/02 18:17:52;;;;;;;;;;;;;;;8.87;94.55;100096.34;4966798;28;19933;-87
2021/09/02 18:20:17;;;;;;;;;;;;;;;8.83;94.39;100099.97;4963473;28;19922;-89
2021/09/02 18:22:45;;;;;;;;;;;;;;;8.82;94.75;100106.19;4982875;28;20366;-87
2021/09/02 18:25:10;;;;;;;;;;;;;;;8.81;94.48;100107.09;4965736;28;19926;-87
2021/09/02 18:27:35;;;;;;;;;;;;;;;8.83;94.45;100105.25;4982733;28;19929;-87
2021/09/02 18:30:01;;;;;;;;;;;;;;;8.85;94.61;100102.56;4966058;28;19918;-87
2021/09/02 18:32:26;;;;;;;;;;;;;;;8.82;94.95;100103.53;4980670;28;19957;-87
2021/09/02 18:34:52;;;;;;;;;;;;;;;8.79;95.07;100102.75;4980322;28;19933;-89
2021/09/02 18:37:17;;;;;;;;;;;;;;;8.85;94.85;100098.13;4966864;28;19926;-87
2021/09/02 18:39:42;;;;;;;;;;;;;;;8.83;95.16;100104.41;4964384;28;19969;-89
2021/09/02 18:42:08;;;;;;;;;;;;;;;8.86;95.18;100105.16;4966566;28;19922;-86
2021/09/02 18:44:36;;;;;;;;;;;;;;;8.86;95.21;100114.88;4965715;28;20423;-87
2021/09/02 18:47:02;;;;;;;;;;;;;;;8.86;94.63;100110.44;4981650;28;19925;-87
2021/09/02 18:49:28;;;;;;;;;;;;;;;8.87;94.73;100112.19;4963221;28;20047;-88
2021/09/02 18:51:54;;;;;;;;;;;;;;;8.84;94.52;100108.75;4966379;28;19929;-87
2021/09/02 18:54:19;;;;;;;;;;;;;;;8.86;94.44;100110.44;4979877;28;19973;-87
2021/09/02 18:56:45;;;;;;;;;;;;;;;8.86;94.84;100113.09;4978991;28;19921;-89
2021/09/02 18:59:10;;;;;;;;;;;;;;;8.84;94.69;100104.34;4981573;28;20012;-87
2021/09/02 19:01:37;;;;;;;;;;;;;;;8.81;94.81;100112.38;4964830;28;20012;-89
2021/09/02 19:04:02;;;;;;;;;;;;;;;8.84;94.95;100111.41;4981132;28;19922;-87
2021/09/02 19:06:28;;;;;;;;;;;;;;;8.82;94.84;100111.47;4965515;28;19926;-89
2021/09/02 19:08:54;;;;;;;;;;;;;;;8.83;94.79;100112.31;4964419;28;19921;-88